Time;durP1;ratioP1;P1;durP2;ratioP2;P2;SDS_P1;SDS_P2;PMS_P1;PMS_P2;Temp;Humidity;BMP_temperature;BMP_pressure;BME280_temperature;BME280_humidity;BME280_pressure;Samples;Min_cycle;Max_cycle;Signal;HPM_P1;HPM_P2
2023/06/16 00:01:40;;;;;;;3.50;3.00;;;;;;;;;;5057238;28;20171;-49
2023/06/16 00:04:06;;;;;;;5.15;3.42;;;;;;;;;;5056132;28;20201;-48
2023/06/16 00:06:32;;;;;;;6.35;3.30;;;;;;;;;;5056906;28;20201;-49
2023/06/16 00:09:00;;;;;;;4.57;3.30;;;;;;;;;;5056866;28;20171;-48
2023/06/16 00:11:29;;;;;;;5.03;3.08;;;;;;;;;;5057361;28;20189;-48
2023/06/16 00:13:56;;;;;;;4.28;3.20;;;;;;;;;;5065458;28;20202;-48
2023/06/16 00:16:23;;;;;;;3.85;3.17;;;;;;;;;;5058002;28;20187;-48
2023/06/16 00:18:51;;;;;;;4.78;3.40;;;;;;;;;;5067519;28;20557;-48
2023/06/16 00:21:19;;;;;;;5.05;3.38;;;;;;;;;;5062095;28;20450;-48
2023/06/16 00:23:46;;;;;;;4.70;2.75;;;;;;;;;;5058731;28;20190;-48
2023/06/16 00:26:12;;;;;;;3.85;3.10;;;;;;;;;;5068053;28;20252;-48
2023/06/16 00:28:41;;;;;;;5.57;3.40;;;;;;;;;;5075294;28;20182;-48
2023/06/16 00:31:07;;;;;;;4.93;3.67;;;;;;;;;;5065033;28;20190;-48
2023/06/16 00:33:33;;;;;;;3.85;3.15;;;;;;;;;;5067093;28;20187;-49
2023/06/16 00:35:59;;;;;;;4.38;3.55;;;;;;;;;;5068663;28;20552;-49
2023/06/16 00:38:25;;;;;;;4.85;2.72;;;;;;;;;;5066220;28;20213;-48
2023/06/16 00:40:51;;;;;;;3.50;3.13;;;;;;;;;;5066313;28;20550;-48
2023/06/16 00:43:17;;;;;;;5.78;3.30;;;;;;;;;;5065947;28;20198;-48
2023/06/16 00:45:43;;;;;;;4.10;3.65;;;;;;;;;;5058022;28;20217;-49
2023/06/16 00:48:09;;;;;;;4.82;3.50;;;;;;;;;;5065451;28;20171;-49
2023/06/16 00:50:35;;;;;;;6.25;3.10;;;;;;;;;;5063546;28;20247;-49
2023/06/16 00:53:01;;;;;;;3.53;3.08;;;;;;;;;;5067778;28;20278;-49
2023/06/16 00:55:29;;;;;;;5.80;3.50;;;;;;;;;;5055149;28;20187;-49
2023/06/16 00:57:55;;;;;;;4.47;3.45;;;;;;;;;;5058375;28;20442;-49
2023/06/16 01:00:21;;;;;;;3.55;2.88;;;;;;;;;;5064076;28;20305;-48
2023/06/16 01:02:48;;;;;;;7.75;3.95;;;;;;;;;;5065291;28;20281;-48
2023/06/16 01:05:16;;;;;;;4.72;3.47;;;;;;;;;;5063376;28;20207;-48
2023/06/16 01:07:51;;;;;;;3.45;3.05;;;;;;;;;;5066506;28;20171;-48
2023/06/16 01:10:37;;;;;;;3.70;3.38;;;;;;;;;;5059772;28;20191;-48
2023/06/16 01:13:26;;;;;;;3.03;2.72;;;;;;;;;;5056740;28;20262;-48
2023/06/16 01:15:52;;;;;;;3.55;3.15;;;;;;;;;;5062687;28;20550;-48
2023/06/16 01:18:22;;;;;;;5.28;3.75;;;;;;;;;;5071381;28;20207;-48
2023/06/16 01:21:01;;;;;;;5.93;3.35;;;;;;;;;;5071075;28;20179;-48
2023/06/16 01:23:47;;;;;;;7.28;3.50;;;;;;;;;;5059675;28;20604;-49
2023/06/16 01:26:14;;;;;;;4.57;3.22;;;;;;;;;;5059390;28;20211;-49
2023/06/16 01:28:41;;;;;;;5.35;3.67;;;;;;;;;;5060478;28;20282;-48
2023/06/16 01:31:08;;;;;;;4.63;3.67;;;;;;;;;;5054789;28;20186;-48
2023/06/16 01:33:35;;;;;;;4.65;3.38;;;;;;;;;;5061701;28;20180;-48
2023/06/16 01:36:02;;;;;;;4.43;3.40;;;;;;;;;;5066813;28;20178;-49
2023/06/16 01:38:28;;;;;;;5.28;3.13;;;;;;;;;;5062225;28;20267;-48
2023/06/16 01:40:54;;;;;;;4.20;3.33;;;;;;;;;;5062553;28;20269;-49
2023/06/16 01:43:21;;;;;;;6.05;3.30;;;;;;;;;;5056946;28;20189;-48
2023/06/16 01:45:50;;;;;;;5.15;3.10;;;;;;;;;;5056303;28;20207;-48
2023/06/16 01:48:16;;;;;;;3.70;3.10;;;;;;;;;;5056540;28;20179;-48
2023/06/16 01:50:42;;;;;;;4.38;3.45;;;;;;;;;;5063171;28;20479;-48
2023/06/16 01:53:08;;;;;;;4.45;3.33;;;;;;;;;;5061632;28;20183;-48
2023/06/16 01:55:34;;;;;;;4.22;3.33;;;;;;;;;;5061116;28;20182;-48
2023/06/16 01:58:00;;;;;;;3.90;3.50;;;;;;;;;;5061477;28;20691;-48
2023/06/16 02:00:28;;;;;;;4.65;3.65;;;;;;;;;;5061644;28;20491;-48
2023/06/16 02:03:04;;;;;;;5.07;3.10;;;;;;;;;;5066149;28;20225;-48
2023/06/16 02:05:30;;;;;;;4.18;3.53;;;;;;;;;;5058013;28;20502;-46
2023/06/16 02:07:57;;;;;;;3.58;3.20;;;;;;;;;;5064319;28;20176;-46
2023/06/16 02:10:23;;;;;;;4.72;3.20;;;;;;;;;;5059714;28;20588;-47
2023/06/16 02:12:49;;;;;;;4.00;3.25;;;;;;;;;;5068746;28;20616;-47
2023/06/16 02:15:17;;;;;;;5.72;3.50;;;;;;;;;;5054691;28;20453;-47
2023/06/16 02:17:44;;;;;;;4.45;3.60;;;;;;;;;;5063426;28;20203;-47
2023/06/16 02:20:11;;;;;;;4.60;3.35;;;;;;;;;;5058718;28;20709;-46
2023/06/16 02:22:37;;;;;;;4.13;3.53;;;;;;;;;;5057486;28;20195;-47
2023/06/16 02:25:03;;;;;;;4.28;3.88;;;;;;;;;;5063253;28;20202;-47
2023/06/16 02:27:29;;;;;;;4.18;3.38;;;;;;;;;;5056944;28;20227;-46
2023/06/16 02:29:55;;;;;;;4.25;3.78;;;;;;;;;;5057267;28;20606;-46
2023/06/16 02:32:21;;;;;;;4.20;3.22;;;;;;;;;;5059054;28;20187;-47
2023/06/16 02:34:47;;;;;;;4.65;3.60;;;;;;;;;;5071747;28;20193;-46
2023/06/16 02:37:14;;;;;;;4.68;3.47;;;;;;;;;;5066094;28;20190;-47
2023/06/16 02:39:40;;;;;;;4.20;3.70;;;;;;;;;;5063100;28;20560;-47
2023/06/16 02:42:07;;;;;;;3.80;3.35;;;;;;;;;;5056697;28;20185;-47
2023/06/16 02:44:33;;;;;;;3.92;3.22;;;;;;;;;;5051816;28;20238;-47
2023/06/16 02:47:01;;;;;;;4.38;3.20;;;;;;;;;;5048957;28;20171;-47
2023/06/16 02:49:27;;;;;;;5.28;3.65;;;;;;;;;;5066476;28;20193;-47
2023/06/16 02:51:53;;;;;;;4.85;3.40;;;;;;;;;;5055958;28;20167;-47
2023/06/16 02:54:19;;;;;;;3.22;2.92;;;;;;;;;;5059737;28;20187;-47
2023/06/16 02:56:45;;;;;;;4.05;3.33;;;;;;;;;;5060219;28;20178;-47
2023/06/16 02:59:11;;;;;;;5.00;3.30;;;;;;;;;;5062329;28;20185;-47
2023/06/16 03:01:37;;;;;;;5.93;3.20;;;;;;;;;;5048056;28;20595;-47
2023/06/16 03:04:03;;;;;;;4.13;3.45;;;;;;;;;;5057337;28;20187;-47
2023/06/16 03:06:34;;;;;;;5.20;3.67;;;;;;;;;;5053789;28;20221;-48
2023/06/16 03:09:00;;;;;;;4.80;3.38;;;;;;;;;;5063252;28;20270;-47
2023/06/16 03:11:26;;;;;;;3.95;3.40;;;;;;;;;;5050389;28;20179;-47
2023/06/16 03:13:52;;;;;;;3.40;3.10;;;;;;;;;;5063857;28;20213;-47
2023/06/16 03:16:21;;;;;;;3.95;3.40;;;;;;;;;;5065589;28;20183;-47
2023/06/16 03:18:46;;;;;;;6.72;3.85;;;;;;;;;;5060431;28;20230;-47
2023/06/16 03:21:12;;;;;;;6.65;3.70;;;;;;;;;;5070444;28;20542;-47
2023/06/16 03:23:38;;;;;;;5.07;3.15;;;;;;;;;;5066921;28;20209;-47
2023/06/16 03:26:04;;;;;;;3.63;3.17;;;;;;;;;;5070022;28;20214;-47
2023/06/16 03:28:30;;;;;;;4.45;3.10;;;;;;;;;;5059574;28;20201;-47
2023/06/16 03:30:56;;;;;;;4.18;3.60;;;;;;;;;;5053242;28;20451;-47
2023/06/16 03:33:22;;;;;;;6.05;3.25;;;;;;;;;;5061610;28;20593;-47
2023/06/16 03:35:48;;;;;;;6.13;3.67;;;;;;;;;;5060296;28;20193;-47
2023/06/16 03:38:14;;;;;;;7.55;3.60;;;;;;;;;;5058797;28;20178;-47
2023/06/16 03:40:40;;;;;;;10.18;3.97;;;;;;;;;;5055860;28;20210;-47
2023/06/16 03:43:06;;;;;;;4.07;3.58;;;;;;;;;;5056363;28;20186;-47
2023/06/16 03:45:32;;;;;;;4.70;3.97;;;;;;;;;;5054388;28;20207;-47
2023/06/16 03:47:58;;;;;;;11.77;3.28;;;;;;;;;;5057702;28;20183;-47
2023/06/16 03:50:25;;;;;;;7.57;3.35;;;;;;;;;;5054176;28;20190;-47
2023/06/16 03:52:52;;;;;;;29.15;3.88;;;;;;;;;;5057812;28;20195;-47
2023/06/16 03:55:19;;;;;;;5.68;3.38;;;;;;;;;;5063920;28;20189;-47
2023/06/16 03:57:45;;;;;;;10.50;3.75;;;;;;;;;;5071193;28;20178;-47
2023/06/16 04:00:11;;;;;;;7.30;3.95;;;;;;;;;;5056267;28;20493;-47
2023/06/16 04:02:37;;;;;;;4.85;3.70;;;;;;;;;;5058007;28;20260;-47
2023/06/16 04:05:03;;;;;;;7.13;3.97;;;;;;;;;;5063015;28;20216;-47
2023/06/16 04:07:30;;;;;;;6.55;3.50;;;;;;;;;;5064037;28;20199;-48
2023/06/16 04:09:56;;;;;;;5.05;3.70;;;;;;;;;;5068600;28;20233;-47
2023/06/16 04:12:22;;;;;;;5.18;3.47;;;;;;;;;;5063081;28;20178;-46
2023/06/16 04:14:48;;;;;;;6.60;3.92;;;;;;;;;;5072678;28;20190;-46
2023/06/16 04:17:14;;;;;;;5.43;3.42;;;;;;;;;;5054731;28;20192;-47
2023/06/16 04:19:41;;;;;;;6.47;3.85;;;;;;;;;;5056400;28;20179;-47
2023/06/16 04:22:07;;;;;;;9.23;3.95;;;;;;;;;;5068912;28;20194;-47
2023/06/16 04:24:33;;;;;;;4.82;3.60;;;;;;;;;;5064253;28;20198;-47
2023/06/16 04:26:58;;;;;;;5.32;3.85;;;;;;;;;;5063436;28;20191;-47
2023/06/16 04:29:27;;;;;;;4.20;3.50;;;;;;;;;;5064059;28;20202;-47
2023/06/16 04:31:59;;;;;;;6.57;3.65;;;;;;;;;;5060120;28;20163;-47
2023/06/16 04:34:25;;;;;;;4.93;3.35;;;;;;;;;;5061191;28;20190;-47
2023/06/16 04:36:51;;;;;;;6.45;3.70;;;;;;;;;;5055414;28;20217;-47
2023/06/16 04:39:17;;;;;;;3.95;3.33;;;;;;;;;;5061522;28;20191;-47
2023/06/16 04:41:43;;;;;;;6.18;3.35;;;;;;;;;;5058962;28;20183;-47
2023/06/16 04:44:09;;;;;;;4.97;3.40;;;;;;;;;;5056472;28;20195;-47
2023/06/16 04:46:37;;;;;;;4.95;3.38;;;;;;;;;;5065083;28;20190;-47
2023/06/16 04:49:03;;;;;;;5.68;3.60;;;;;;;;;;5067850;28;20176;-47
2023/06/16 04:51:29;;;;;;;4.10;3.70;;;;;;;;;;5059955;28;20193;-47
2023/06/16 04:53:56;;;;;;;6.05;3.33;;;;;;;;;;5056830;28;20171;-47
2023/06/16 04:56:22;;;;;;;6.35;4.03;;;;;;;;;;5071163;28;20208;-47
2023/06/16 04:58:48;;;;;;;4.40;3.35;;;;;;;;;;5062250;28;20549;-47
2023/06/16 05:01:14;;;;;;;4.28;3.45;;;;;;;;;;5069477;28;20193;-47
2023/06/16 05:03:40;;;;;;;4.20;3.58;;;;;;;;;;5068777;28;20182;-47
2023/06/16 05:06:06;;;;;;;4.43;3.63;;;;;;;;;;5063159;28;20219;-47
2023/06/16 05:08:32;;;;;;;4.88;3.60;;;;;;;;;;5061247;28;20222;-47
2023/06/16 05:10:58;;;;;;;4.75;3.40;;;;;;;;;;5070651;28;20232;-47
2023/06/16 05:13:24;;;;;;;4.90;3.63;;;;;;;;;;5068401;28;20175;-47
2023/06/16 05:15:50;;;;;;;7.40;4.07;;;;;;;;;;5054798;28;20180;-47
2023/06/16 05:18:16;;;;;;;5.40;3.60;;;;;;;;;;5067185;28;20566;-47
2023/06/16 05:20:42;;;;;;;4.13;3.63;;;;;;;;;;5059690;28;20191;-47
2023/06/16 05:23:08;;;;;;;5.82;3.33;;;;;;;;;;5066220;28;20194;-47
2023/06/16 05:25:34;;;;;;;5.35;3.67;;;;;;;;;;5061385;28;20191;-47
2023/06/16 05:28:00;;;;;;;6.00;3.70;;;;;;;;;;5064202;28;21037;-47
2023/06/16 05:30:26;;;;;;;3.55;3.25;;;;;;;;;;5065525;28;20182;-48
2023/06/16 05:32:51;;;;;;;4.65;3.85;;;;;;;;;;5066214;28;20188;-47
2023/06/16 05:35:17;;;;;;;4.88;3.95;;;;;;;;;;5065212;28;20216;-47
2023/06/16 05:37:43;;;;;;;4.20;3.58;;;;;;;;;;5055046;28;20400;-47
2023/06/16 05:40:10;;;;;;;6.00;3.53;;;;;;;;;;5059461;28;20193;-47
2023/06/16 05:42:36;;;;;;;4.78;3.80;;;;;;;;;;5061750;28;20175;-47
2023/06/16 05:45:02;;;;;;;4.00;3.35;;;;;;;;;;5061073;28;20285;-47
2023/06/16 05:47:28;;;;;;;5.32;3.30;;;;;;;;;;5072545;28;20203;-47
2023/06/16 05:49:56;;;;;;;3.97;3.38;;;;;;;;;;5063408;28;20266;-47
2023/06/16 05:52:22;;;;;;;5.10;3.63;;;;;;;;;;5059186;28;20174;-47
2023/06/16 05:54:48;;;;;;;5.13;3.30;;;;;;;;;;5061066;28;20214;-47
2023/06/16 05:57:14;;;;;;;5.10;3.85;;;;;;;;;;5057100;28;20612;-47
2023/06/16 05:59:40;;;;;;;6.72;3.67;;;;;;;;;;5066167;28;20174;-47
2023/06/16 06:02:06;;;;;;;5.88;3.80;;;;;;;;;;5063339;28;20217;-47
2023/06/16 06:04:33;;;;;;;4.35;3.50;;;;;;;;;;5061292;28;20207;-47
2023/06/16 06:07:00;;;;;;;5.10;3.65;;;;;;;;;;5064103;28;20191;-47
2023/06/16 06:09:26;;;;;;;6.43;3.63;;;;;;;;;;5068959;28;20194;-47
2023/06/16 06:11:52;;;;;;;4.13;3.72;;;;;;;;;;5063798;28;20264;-47
2023/06/16 06:14:18;;;;;;;6.55;3.92;;;;;;;;;;5062256;28;20530;-46
2023/06/16 06:16:44;;;;;;;7.50;3.78;;;;;;;;;;5065752;28;20186;-46
2023/06/16 06:19:10;;;;;;;4.70;3.33;;;;;;;;;;5067614;28;20182;-47
2023/06/16 06:21:38;;;;;;;6.43;3.75;;;;;;;;;;5051981;28;20176;-47
2023/06/16 06:24:05;;;;;;;3.58;3.05;;;;;;;;;;5054238;28;20233;-47
2023/06/16 06:26:31;;;;;;;6.00;3.60;;;;;;;;;;5070733;28;20159;-47
2023/06/16 06:28:57;;;;;;;3.33;2.80;;;;;;;;;;5053253;28;20194;-47
2023/06/16 06:31:22;;;;;;;5.57;3.67;;;;;;;;;;5054239;28;20190;-47
2023/06/16 06:33:48;;;;;;;6.30;3.75;;;;;;;;;;5054709;28;20183;-47
2023/06/16 06:36:21;;;;;;;6.15;3.63;;;;;;;;;;5053761;28;20183;-47
2023/06/16 06:38:47;;;;;;;7.15;3.92;;;;;;;;;;5053748;28;20191;-47
2023/06/16 06:41:13;;;;;;;5.15;3.83;;;;;;;;;;5054138;28;20187;-47
2023/06/16 06:43:39;;;;;;;4.75;3.30;;;;;;;;;;5057871;28;20524;-48
2023/06/16 06:46:05;;;;;;;6.07;3.78;;;;;;;;;;5062225;28;20216;-47
2023/06/16 06:48:31;;;;;;;6.15;3.92;;;;;;;;;;5066028;28;20166;-47
2023/06/16 06:50:57;;;;;;;6.07;3.67;;;;;;;;;;5057922;28;20183;-47
2023/06/16 06:53:23;;;;;;;4.95;3.58;;;;;;;;;;5056283;28;20187;-47
2023/06/16 06:55:49;;;;;;;5.20;3.58;;;;;;;;;;5065503;28;20216;-47
2023/06/16 06:58:15;;;;;;;5.60;3.65;;;;;;;;;;5057467;28;20443;-48
2023/06/16 07:00:41;;;;;;;4.95;3.42;;;;;;;;;;5061059;28;20183;-47
2023/06/16 07:03:07;;;;;;;5.13;3.25;;;;;;;;;;5058054;28;20229;-47
2023/06/16 07:05:34;;;;;;;5.25;3.63;;;;;;;;;;5053518;28;20196;-47
2023/06/16 07:08:00;;;;;;;7.10;3.70;;;;;;;;;;5054277;28;20460;-47
2023/06/16 07:10:29;;;;;;;4.72;3.90;;;;;;;;;;5053968;28;20232;-47
2023/06/16 07:12:55;;;;;;;4.10;3.70;;;;;;;;;;5058258;28;20613;-47
2023/06/16 07:15:21;;;;;;;3.80;3.22;;;;;;;;;;5053804;28;20191;-47
2023/06/16 07:17:47;;;;;;;6.00;3.53;;;;;;;;;;5053302;28;20186;-47
2023/06/16 07:20:13;;;;;;;5.55;3.53;;;;;;;;;;5054514;28;20191;-47
2023/06/16 07:22:39;;;;;;;4.60;3.40;;;;;;;;;;5061187;28;20198;-47
2023/06/16 07:25:06;;;;;;;5.20;3.63;;;;;;;;;;5061169;28;20202;-47
2023/06/16 07:27:32;;;;;;;9.45;3.63;;;;;;;;;;5065694;28;20201;-47
2023/06/16 07:29:57;;;;;;;5.47;3.90;;;;;;;;;;5070473;28;20353;-47
2023/06/16 07:32:23;;;;;;;5.93;3.45;;;;;;;;;;5063933;28;20264;-47
2023/06/16 07:34:49;;;;;;;3.63;3.33;;;;;;;;;;5052306;28;20186;-47
2023/06/16 07:37:15;;;;;;;6.65;3.63;;;;;;;;;;5054397;28;20207;-47
2023/06/16 07:39:42;;;;;;;5.38;3.33;;;;;;;;;;5054949;28;20182;-47
2023/06/16 07:42:08;;;;;;;5.88;3.83;;;;;;;;;;5057752;28;20202;-47
2023/06/16 07:44:34;;;;;;;9.50;4.03;;;;;;;;;;5055789;28;20198;-47
2023/06/16 07:47:00;;;;;;;4.63;3.47;;;;;;;;;;5062084;28;20199;-47
2023/06/16 07:49:26;;;;;;;5.53;3.58;;;;;;;;;;5051904;28;20186;-47
2023/06/16 07:51:52;;;;;;;4.80;3.60;;;;;;;;;;5060895;28;20275;-47
2023/06/16 07:54:18;;;;;;;5.60;3.53;;;;;;;;;;5049090;28;20577;-47
2023/06/16 07:56:44;;;;;;;3.97;3.58;;;;;;;;;;5069108;28;20301;-47
2023/06/16 07:59:10;;;;;;;5.82;3.58;;;;;;;;;;5069237;28;20278;-47
2023/06/16 08:01:36;;;;;;;3.47;3.17;;;;;;;;;;5059908;28;20436;-47
2023/06/16 08:04:02;;;;;;;8.50;3.22;;;;;;;;;;5062360;28;20182;-47
2023/06/16 08:06:28;;;;;;;3.53;2.95;;;;;;;;;;5053252;28;20208;-47
2023/06/16 08:08:54;;;;;;;3.33;3.03;;;;;;;;;;5056722;28;20212;-47
2023/06/16 08:11:20;;;;;;;4.70;3.55;;;;;;;;;;5051350;28;20206;-47
2023/06/16 08:13:46;;;;;;;4.15;3.33;;;;;;;;;;5062363;28;20183;-47
2023/06/16 08:16:12;;;;;;;4.13;3.40;;;;;;;;;;5061128;28;20190;-47
2023/06/16 08:18:39;;;;;;;3.33;3.03;;;;;;;;;;5055461;28;20187;-47
2023/06/16 08:21:06;;;;;;;4.97;3.30;;;;;;;;;;5054482;28;20235;-48
2023/06/16 08:23:32;;;;;;;5.80;3.38;;;;;;;;;;5056230;28;20194;-47
2023/06/16 08:25:59;;;;;;;3.85;3.13;;;;;;;;;;5054899;28;20226;-47
2023/06/16 08:28:25;;;;;;;4.93;3.40;;;;;;;;;;5061863;28;20175;-47
2023/06/16 08:30:51;;;;;;;4.97;3.13;;;;;;;;;;5064965;28;20166;-47
2023/06/16 08:33:17;;;;;;;3.92;3.00;;;;;;;;;;5069084;28;20838;-47
2023/06/16 08:35:43;;;;;;;3.45;3.15;;;;;;;;;;5058027;28;20187;-47
2023/06/16 08:38:09;;;;;;;3.63;2.97;;;;;;;;;;5058877;28;20547;-47
2023/06/16 08:40:35;;;;;;;5.28;2.90;;;;;;;;;;5062242;28;20265;-48
2023/06/16 08:43:05;;;;;;;4.97;3.35;;;;;;;;;;5051774;28;20191;-48
2023/06/16 08:45:31;;;;;;;4.00;3.20;;;;;;;;;;5055235;28;20290;-47
2023/06/16 08:47:57;;;;;;;4.22;3.38;;;;;;;;;;5052835;28;20266;-48
2023/06/16 08:50:23;;;;;;;7.95;3.70;;;;;;;;;;5050124;28;20175;-47
2023/06/16 08:52:50;;;;;;;4.00;3.35;;;;;;;;;;5049730;28;20175;-47
2023/06/16 08:55:16;;;;;;;6.15;3.35;;;;;;;;;;5063494;28;20328;-47
2023/06/16 08:57:46;;;;;;;7.82;3.35;;;;;;;;;;5064382;28;20539;-48
2023/06/16 09:00:13;;;;;;;5.07;2.92;;;;;;;;;;5061079;28;20521;-48
2023/06/16 09:02:41;;;;;;;3.88;3.30;;;;;;;;;;5065731;28;20834;-47
2023/06/16 09:05:07;;;;;;;4.13;3.22;;;;;;;;;;5069532;28;20227;-47
2023/06/16 09:07:33;;;;;;;3.70;3.30;;;;;;;;;;5061954;28;20245;-48
2023/06/16 09:09:59;;;;;;;8.52;3.28;;;;;;;;;;5060323;28;20494;-48
2023/06/16 09:12:25;;;;;;;4.40;3.30;;;;;;;;;;5053930;28;20196;-47
2023/06/16 09:14:51;;;;;;;3.80;2.75;;;;;;;;;;5063442;28;20533;-47
2023/06/16 09:17:30;;;;;;;3.92;3.40;;;;;;;;;;5065741;28;20179;-47
2023/06/16 09:19:56;;;;;;;5.53;4.07;;;;;;;;;;5057090;28;20186;-47
2023/06/16 09:22:26;;;;;;;4.93;3.60;;;;;;;;;;5070445;28;20581;-48
2023/06/16 09:25:04;;;;;;;4.57;3.25;;;;;;;;;;5053974;28;20204;-48
2023/06/16 09:27:43;;;;;;;3.88;2.97;;;;;;;;;;5059765;28;20182;-48
2023/06/16 09:30:10;;;;;;;7.07;2.90;;;;;;;;;;5053044;28;20197;-48
2023/06/16 09:32:37;;;;;;;4.82;3.28;;;;;;;;;;5064479;28;20179;-47
2023/06/16 09:35:16;;;;;;;3.55;3.10;;;;;;;;;;5061940;28;20189;-47
2023/06/16 09:37:43;;;;;;;4.43;3.70;;;;;;;;;;5049102;28;20183;-47
2023/06/16 09:40:09;;;;;;;3.90;3.40;;;;;;;;;;5052641;28;20559;-47
2023/06/16 09:42:37;;;;;;;5.80;3.38;;;;;;;;;;5055802;28;20190;-47
2023/06/16 09:45:10;;;;;;;4.38;3.33;;;;;;;;;;5064706;28;20213;-47
2023/06/16 09:47:43;;;;;;;5.22;3.10;;;;;;;;;;5059710;28;20190;-48
2023/06/16 09:50:12;;;;;;;4.45;3.03;;;;;;;;;;5072322;28;20303;-47
2023/06/16 09:52:37;;;;;;;3.85;3.20;;;;;;;;;;5062854;28;20427;-48
2023/06/16 09:55:06;;;;;;;4.13;3.38;;;;;;;;;;5057109;28;20187;-48
2023/06/16 09:57:32;;;;;;;5.05;3.13;;;;;;;;;;5053967;28;20203;-47
2023/06/16 09:59:58;;;;;;;4.97;3.28;;;;;;;;;;5054893;28;20186;-47
2023/06/16 10:02:24;;;;;;;6.15;3.22;;;;;;;;;;5063000;28;20190;-48
2023/06/16 10:04:53;;;;;;;3.00;2.65;;;;;;;;;;5064109;28;20198;-47
2023/06/16 10:07:20;;;;;;;4.20;2.67;;;;;;;;;;5061399;28;20183;-47
2023/06/16 10:09:50;;;;;;;4.00;3.08;;;;;;;;;;5057737;28;20197;-48
2023/06/16 10:12:16;;;;;;;3.50;3.20;;;;;;;;;;5058973;28;20296;-48
2023/06/16 10:14:42;;;;;;;3.88;3.33;;;;;;;;;;5048959;28;20554;-49
2023/06/16 10:17:11;;;;;;;4.90;2.78;;;;;;;;;;5063409;28;20570;-48
2023/06/16 10:19:38;;;;;;;5.43;3.45;;;;;;;;;;5063275;28;20603;-48
2023/06/16 10:22:04;;;;;;;4.28;2.38;;;;;;;;;;5054656;28;20210;-49
2023/06/16 10:24:33;;;;;;;3.50;3.03;;;;;;;;;;5053056;28;20191;-48
2023/06/16 10:27:00;;;;;;;5.70;3.15;;;;;;;;;;5061921;28;20261;-48
2023/06/16 10:29:27;;;;;;;6.80;3.63;;;;;;;;;;5052303;28;20225;-48
2023/06/16 10:32:04;;;;;;;5.82;3.28;;;;;;;;;;5056589;28;20210;-48
2023/06/16 10:34:30;;;;;;;6.38;2.92;;;;;;;;;;5055056;28;20519;-48
2023/06/16 10:36:57;;;;;;;3.53;2.67;;;;;;;;;;5056974;28;20206;-48
2023/06/16 10:39:23;;;;;;;5.80;3.10;;;;;;;;;;5064678;28;20540;-48
2023/06/16 10:41:49;;;;;;;3.03;2.58;;;;;;;;;;5055413;28;20269;-48
2023/06/16 10:44:22;;;;;;;6.38;3.25;;;;;;;;;;5054792;28;20176;-48
2023/06/16 10:47:07;;;;;;;5.10;3.10;;;;;;;;;;5052330;28;20183;-48
2023/06/16 10:49:43;;;;;;;4.20;2.90;;;;;;;;;;5064371;28;20638;-48
2023/06/16 10:52:09;;;;;;;4.30;3.00;;;;;;;;;;5063301;28;20228;-48
2023/06/16 10:54:45;;;;;;;3.38;2.90;;;;;;;;;;5059336;28;20732;-48
2023/06/16 10:57:12;;;;;;;5.30;3.00;;;;;;;;;;5059284;28;20179;-48
2023/06/16 10:59:57;;;;;;;3.30;3.00;;;;;;;;;;5060700;28;20235;-48
2023/06/16 11:02:24;;;;;;;4.80;2.75;;;;;;;;;;5056824;28;20183;-48
2023/06/16 11:05:09;;;;;;;4.25;3.10;;;;;;;;;;5049761;28;20335;-48
2023/06/16 11:07:39;;;;;;;4.05;2.75;;;;;;;;;;5053806;28;20201;-48
2023/06/16 11:10:06;;;;;;;3.92;2.70;;;;;;;;;;5058558;28;20534;-48
2023/06/16 11:12:32;;;;;;;3.67;3.05;;;;;;;;;;5055511;28;20197;-48
2023/06/16 11:14:58;;;;;;;3.83;2.90;;;;;;;;;;5055399;28;20196;-48
2023/06/16 11:17:25;;;;;;;3.72;2.92;;;;;;;;;;5066702;28;20191;-48
2023/06/16 11:19:53;;;;;;;2.97;2.40;;;;;;;;;;5053983;28;20562;-48
2023/06/16 11:22:27;;;;;;;5.38;2.92;;;;;;;;;;5055527;28;20190;-48
2023/06/16 11:24:52;;;;;;;3.67;2.67;;;;;;;;;;5058769;28;20199;-48
2023/06/16 11:27:18;;;;;;;16.48;6.03;;;;;;;;;;5061241;28;20595;-48
2023/06/16 11:29:44;;;;;;;31.27;10.85;;;;;;;;;;5061662;28;20186;-48
2023/06/16 11:32:10;;;;;;;30.30;10.15;;;;;;;;;;5060293;28;20187;-48
2023/06/16 11:34:36;;;;;;;28.75;8.82;;;;;;;;;;5057480;28;20183;-48
2023/06/16 11:37:02;;;;;;;25.13;6.28;;;;;;;;;;5063329;28;20344;-48
2023/06/16 11:39:28;;;;;;;11.30;4.55;;;;;;;;;;5061545;28;20266;-48
2023/06/16 11:41:55;;;;;;;11.68;4.25;;;;;;;;;;5054659;28;20241;-48
2023/06/16 11:44:21;;;;;;;10.27;4.18;;;;;;;;;;5053225;28;20175;-48
2023/06/16 11:46:47;;;;;;;6.40;3.50;;;;;;;;;;5068010;28;20273;-48
2023/06/16 11:49:13;;;;;;;10.48;3.60;;;;;;;;;;5057941;28;20179;-48
2023/06/16 11:51:39;;;;;;;8.73;3.83;;;;;;;;;;5062519;28;20183;-49
2023/06/16 11:54:05;;;;;;;8.75;4.07;;;;;;;;;;5051626;28;20173;-48
2023/06/16 11:56:33;;;;;;;9.07;3.20;;;;;;;;;;5063820;28;20182;-49
2023/06/16 11:59:03;;;;;;;6.47;2.65;;;;;;;;;;5053164;28;20174;-48
2023/06/16 12:01:29;;;;;;;9.75;2.92;;;;;;;;;;5057009;28;20185;-48
2023/06/16 12:03:56;;;;;;;9.02;2.83;;;;;;;;;;5056896;28;20493;-49
2023/06/16 12:06:23;;;;;;;8.95;3.15;;;;;;;;;;5052543;28;20209;-49
2023/06/16 12:08:49;;;;;;;9.60;3.10;;;;;;;;;;5061956;28;20198;-49
2023/06/16 12:11:21;;;;;;;7.40;2.47;;;;;;;;;;5057257;28;20193;-48
2023/06/16 12:13:48;;;;;;;8.73;2.63;;;;;;;;;;5052261;28;20171;-49
2023/06/16 12:16:14;;;;;;;4.50;3.08;;;;;;;;;;5060906;28;20186;-49
2023/06/16 12:18:40;;;;;;;8.25;2.80;;;;;;;;;;5061071;28;20175;-49
2023/06/16 12:21:23;;;;;;;9.77;3.25;;;;;;;;;;5060653;28;20209;-49
2023/06/16 12:23:53;;;;;;;9.07;2.40;;;;;;;;;;5061426;28;20207;-49
2023/06/16 12:26:35;;;;;;;8.43;2.83;;;;;;;;;;5057510;28;20214;-48
2023/06/16 12:29:14;;;;;;;9.10;3.03;;;;;;;;;;5068137;28;20191;-48
2023/06/16 12:31:50;;;;;;;5.93;2.13;;;;;;;;;;5055054;28;20258;-48
2023/06/16 12:34:20;;;;;;;6.13;2.88;;;;;;;;;;5063407;28;20202;-48
2023/06/16 12:36:47;;;;;;;3.60;2.50;;;;;;;;;;5060679;28;21489;-48
2023/06/16 12:39:20;;;;;;;4.75;2.40;;;;;;;;;;5057807;28;20178;-49
2023/06/16 12:41:56;;;;;;;4.38;2.22;;;;;;;;;;5054701;28;20206;-49
2023/06/16 12:44:22;;;;;;;4.75;2.22;;;;;;;;;;5051965;28;20175;-48
2023/06/16 12:46:48;;;;;;;5.68;2.08;;;;;;;;;;5061198;28;20298;-49
2023/06/16 12:49:14;;;;;;;3.72;2.40;;;;;;;;;;5059908;28;20258;-48
2023/06/16 12:51:40;;;;;;;2.60;1.88;;;;;;;;;;5055127;28;20237;-48
2023/06/16 12:54:10;;;;;;;4.85;2.30;;;;;;;;;;5063517;28;20182;-49
2023/06/16 12:56:36;;;;;;;2.90;2.28;;;;;;;;;;5060616;28;20187;-48
2023/06/16 12:59:02;;;;;;;3.60;2.28;;;;;;;;;;5055472;28;20200;-49
2023/06/16 13:01:28;;;;;;;6.63;2.60;;;;;;;;;;5061192;28;20248;-49
2023/06/16 13:03:54;;;;;;;2.88;2.42;;;;;;;;;;5066655;28;20233;-49
2023/06/16 13:06:20;;;;;;;5.82;2.70;;;;;;;;;;5067789;28;20618;-49
2023/06/16 13:08:46;;;;;;;4.03;2.58;;;;;;;;;;5067873;28;20250;-48
2023/06/16 13:11:12;;;;;;;4.05;2.25;;;;;;;;;;5063648;28;20182;-48
2023/06/16 13:13:38;;;;;;;3.95;2.00;;;;;;;;;;5060772;28;20191;-49
2023/06/16 13:16:05;;;;;;;3.78;2.95;;;;;;;;;;5061972;28;20174;-48
2023/06/16 13:18:31;;;;;;;4.85;2.65;;;;;;;;;;5064895;28;20202;-49
2023/06/16 13:20:58;;;;;;;4.38;2.50;;;;;;;;;;5057888;28;20222;-49
2023/06/16 13:23:24;;;;;;;2.70;2.45;;;;;;;;;;5063162;28;20211;-48
2023/06/16 13:25:50;;;;;;;3.28;2.47;;;;;;;;;;5064482;28;20211;-49
2023/06/16 13:28:16;;;;;;;4.32;2.78;;;;;;;;;;5067380;28;20225;-49
2023/06/16 13:30:42;;;;;;;2.47;2.10;;;;;;;;;;5063918;28;20779;-49
2023/06/16 13:33:08;;;;;;;2.65;2.40;;;;;;;;;;5063616;28;20183;-48
2023/06/16 13:35:34;;;;;;;2.60;2.35;;;;;;;;;;5058535;28;20225;-48
2023/06/16 13:38:00;;;;;;;5.35;2.28;;;;;;;;;;5064709;28;20229;-48
2023/06/16 13:40:26;;;;;;;4.90;2.67;;;;;;;;;;5051484;28;20182;-48
2023/06/16 13:42:52;;;;;;;4.07;2.55;;;;;;;;;;5056150;28;20576;-48
2023/06/16 13:45:18;;;;;;;3.22;2.58;;;;;;;;;;5065416;28;20199;-49
2023/06/16 13:47:44;;;;;;;2.95;2.58;;;;;;;;;;5058544;28;20226;-49
2023/06/16 13:50:10;;;;;;;4.10;2.50;;;;;;;;;;5066177;28;20447;-49
2023/06/16 13:52:37;;;;;;;3.53;2.95;;;;;;;;;;5068183;28;20763;-49
2023/06/16 13:55:03;;;;;;;3.22;2.67;;;;;;;;;;5063694;28;20261;-49
2023/06/16 13:57:29;;;;;;;4.28;2.70;;;;;;;;;;5066550;28;20325;-48
2023/06/16 13:59:58;;;;;;;3.25;2.60;;;;;;;;;;5059817;28;20225;-48
2023/06/16 14:02:24;;;;;;;3.35;2.75;;;;;;;;;;5068474;28;20207;-48
2023/06/16 14:04:50;;;;;;;6.57;2.50;;;;;;;;;;5061642;28;20202;-48
2023/06/16 14:07:16;;;;;;;2.60;2.40;;;;;;;;;;5060283;28;20182;-48
2023/06/16 14:09:42;;;;;;;3.08;2.55;;;;;;;;;;5059099;28;20175;-48
2023/06/16 14:12:08;;;;;;;4.10;2.38;;;;;;;;;;5077821;28;20201;-49
2023/06/16 14:14:34;;;;;;;2.78;2.47;;;;;;;;;;5060120;28;20612;-49
2023/06/16 14:17:00;;;;;;;3.67;2.50;;;;;;;;;;5063408;28;20183;-49
2023/06/16 14:19:26;;;;;;;4.03;2.38;;;;;;;;;;5058572;28;20183;-49
2023/06/16 14:21:52;;;;;;;3.03;2.33;;;;;;;;;;5061561;28;20214;-48
2023/06/16 14:24:18;;;;;;;2.72;2.40;;;;;;;;;;5058329;28;20200;-48
2023/06/16 14:26:43;;;;;;;3.00;2.38;;;;;;;;;;5062974;28;20202;-48
2023/06/16 14:29:09;;;;;;;3.25;2.38;;;;;;;;;;5061790;28;20655;-48
2023/06/16 14:31:35;;;;;;;4.05;2.70;;;;;;;;;;5061011;28;20178;-48
2023/06/16 14:34:01;;;;;;;5.03;2.40;;;;;;;;;;5056942;28;20529;-48
2023/06/16 14:36:27;;;;;;;4.10;2.70;;;;;;;;;;5062739;28;20217;-48
2023/06/16 14:38:53;;;;;;;3.13;2.47;;;;;;;;;;5054368;28;20571;-48
2023/06/16 14:41:19;;;;;;;3.42;2.30;;;;;;;;;;5058943;28;20578;-49
2023/06/16 14:43:45;;;;;;;4.75;2.70;;;;;;;;;;5055559;28;20233;-48